sensor_id;sensor_type;location;lat;lon;timestamp;P1;durP1;ratioP1;P2;durP2;ratioP2
71475;SDS011;59286;59.274;17.974;2023-04-03T00:00:18;5.53;;;1.85;;
71475;SDS011;59286;59.274;17.974;2023-04-03T00:02:43;5.95;;;1.65;;
71475;SDS011;59286;59.274;17.974;2023-04-03T00:05:09;16.27;;;2.28;;
71475;SDS011;59286;59.274;17.974;2023-04-03T00:07:34;13.38;;;1.92;;
71475;SDS011;59286;59.274;17.974;2023-04-03T00:09:59;12.23;;;2.28;;
71475;SDS011;59286;59.274;17.974;2023-04-03T00:12:25;6.50;;;1.83;;
71475;SDS011;59286;59.274;17.974;2023-04-03T00:14:50;9.02;;;1.70;;
71475;SDS011;59286;59.274;17.974;2023-04-03T00:17:15;7.53;;;1.83;;
71475;SDS011;59286;59.274;17.974;2023-04-03T00:19:41;10.57;;;2.50;;
71475;SDS011;59286;59.274;17.974;2023-04-03T00:22:06;8.98;;;1.92;;
71475;SDS011;59286;59.274;17.974;2023-04-03T00:24:31;8.38;;;1.83;;
71475;SDS011;59286;59.274;17.974;2023-04-03T00:26:57;11.90;;;2.28;;
71475;SDS011;59286;59.274;17.974;2023-04-03T00:29:22;6.93;;;1.83;;
71475;SDS011;59286;59.274;17.974;2023-04-03T00:31:47;9.38;;;2.10;;
71475;SDS011;59286;59.274;17.974;2023-04-03T00:34:13;7.22;;;1.73;;
71475;SDS011;59286;59.274;17.974;2023-04-03T00:36:38;6.35;;;1.70;;
71475;SDS011;59286;59.274;17.974;2023-04-03T00:39:03;8.07;;;2.10;;
71475;SDS011;59286;59.274;17.974;2023-04-03T00:41:29;9.82;;;1.83;;
71475;SDS011;59286;59.274;17.974;2023-04-03T00:43:54;7.25;;;2.22;;
71475;SDS011;59286;59.274;17.974;2023-04-03T00:46:20;8.05;;;1.85;;
71475;SDS011;59286;59.274;17.974;2023-04-03T00:48:46;10.20;;;2.03;;
71475;SDS011;59286;59.274;17.974;2023-04-03T00:51:14;9.43;;;2.10;;
71475;SDS011;59286;59.274;17.974;2023-04-03T00:53:44;7.60;;;2.00;;
71475;SDS011;59286;59.274;17.974;2023-04-03T00:56:13;8.60;;;2.30;;
71475;SDS011;59286;59.274;17.974;2023-04-03T00:58:52;8.23;;;1.90;;
71475;SDS011;59286;59.274;17.974;2023-04-03T01:01:22;8.48;;;2.35;;
71475;SDS011;59286;59.274;17.974;2023-04-03T01:03:50;8.32;;;1.92;;
71475;SDS011;59286;59.274;17.974;2023-04-03T01:06:16;9.00;;;2.35;;
71475;SDS011;59286;59.274;17.974;2023-04-03T01:08:46;9.38;;;1.90;;
71475;SDS011;59286;59.274;17.974;2023-04-03T01:11:14;7.63;;;1.90;;
71475;SDS011;59286;59.274;17.974;2023-04-03T01:13:40;10.65;;;2.15;;
71475;SDS011;59286;59.274;17.974;2023-04-03T01:16:06;11.30;;;1.90;;
71475;SDS011;59286;59.274;17.974;2023-04-03T01:18:32;11.27;;;2.20;;
71475;SDS011;59286;59.274;17.974;2023-04-03T01:26:36;7.20;;;1.98;;
71475;SDS011;59286;59.274;17.974;2023-04-03T01:29:02;8.82;;;2.35;;
71475;SDS011;59286;59.274;17.974;2023-04-03T01:31:40;9.40;;;1.83;;
71475;SDS011;59286;59.274;17.974;2023-04-03T01:34:05;8.65;;;1.85;;
71475;SDS011;59286;59.274;17.974;2023-04-03T01:36:31;9.98;;;2.47;;
71475;SDS011;59286;59.274;17.974;2023-04-03T01:38:57;11.18;;;2.08;;
71475;SDS011;59286;59.274;17.974;2023-04-03T01:41:24;8.38;;;1.70;;
71475;SDS011;59286;59.274;17.974;2023-04-03T01:43:50;8.05;;;2.00;;
71475;SDS011;59286;59.274;17.974;2023-04-03T01:46:16;9.30;;;2.20;;
71475;SDS011;59286;59.274;17.974;2023-04-03T01:48:42;7.63;;;2.03;;
71475;SDS011;59286;59.274;17.974;2023-04-03T01:51:07;9.45;;;1.90;;
71475;SDS011;59286;59.274;17.974;2023-04-03T01:53:33;7.97;;;2.00;;
71475;SDS011;59286;59.274;17.974;2023-04-03T01:55:58;8.32;;;1.98;;
71475;SDS011;59286;59.274;17.974;2023-04-03T01:58:24;12.95;;;2.20;;
71475;SDS011;59286;59.274;17.974;2023-04-03T02:00:50;8.00;;;2.28;;
71475;SDS011;59286;59.274;17.974;2023-04-03T02:03:16;9.98;;;1.90;;
71475;SDS011;59286;59.274;17.974;2023-04-03T02:05:41;6.60;;;2.30;;
71475;SDS011;59286;59.274;17.974;2023-04-03T02:08:07;10.35;;;2.10;;
71475;SDS011;59286;59.274;17.974;2023-04-03T02:10:32;9.18;;;2.08;;
71475;SDS011;59286;59.274;17.974;2023-04-03T02:12:57;15.30;;;2.15;;
71475;SDS011;59286;59.274;17.974;2023-04-03T02:15:23;9.48;;;2.15;;
71475;SDS011;59286;59.274;17.974;2023-04-03T02:17:48;7.65;;;1.52;;
71475;SDS011;59286;59.274;17.974;2023-04-03T02:20:13;10.70;;;2.30;;
71475;SDS011;59286;59.274;17.974;2023-04-03T02:22:39;10.82;;;1.98;;
71475;SDS011;59286;59.274;17.974;2023-04-03T02:25:05;8.55;;;2.22;;
71475;SDS011;59286;59.274;17.974;2023-04-03T02:27:30;8.60;;;1.90;;
71475;SDS011;59286;59.274;17.974;2023-04-03T02:29:56;7.20;;;2.05;;
71475;SDS011;59286;59.274;17.974;2023-04-03T02:32:22;9.63;;;2.15;;
71475;SDS011;59286;59.274;17.974;2023-04-03T02:34:47;8.80;;;1.92;;
71475;SDS011;59286;59.274;17.974;2023-04-03T02:37:12;11.18;;;1.92;;
71475;SDS011;59286;59.274;17.974;2023-04-03T02:39:38;15.40;;;2.83;;
71475;SDS011;59286;59.274;17.974;2023-04-03T02:42:03;9.35;;;2.17;;
71475;SDS011;59286;59.274;17.974;2023-04-03T02:44:29;8.23;;;1.80;;
71475;SDS011;59286;59.274;17.974;2023-04-03T02:46:54;10.93;;;1.90;;
71475;SDS011;59286;59.274;17.974;2023-04-03T02:49:20;8.80;;;1.90;;
71475;SDS011;59286;59.274;17.974;2023-04-03T02:51:45;8.38;;;1.95;;
71475;SDS011;59286;59.274;17.974;2023-04-03T02:54:10;6.22;;;1.60;;
71475;SDS011;59286;59.274;17.974;2023-04-03T02:56:36;7.93;;;2.00;;
71475;SDS011;59286;59.274;17.974;2023-04-03T02:59:01;9.98;;;2.10;;
71475;SDS011;59286;59.274;17.974;2023-04-03T03:01:27;10.68;;;2.20;;
71475;SDS011;59286;59.274;17.974;2023-04-03T03:03:56;6.82;;;2.45;;
71475;SDS011;59286;59.274;17.974;2023-04-03T03:06:22;8.95;;;1.70;;
71475;SDS011;59286;59.274;17.974;2023-04-03T03:08:47;13.20;;;2.38;;
71475;SDS011;59286;59.274;17.974;2023-04-03T03:11:12;7.68;;;2.25;;
71475;SDS011;59286;59.274;17.974;2023-04-03T03:13:38;6.68;;;1.80;;
71475;SDS011;59286;59.274;17.974;2023-04-03T03:16:04;9.88;;;2.25;;
71475;SDS011;59286;59.274;17.974;2023-04-03T03:18:29;8.80;;;1.88;;
71475;SDS011;59286;59.274;17.974;2023-04-03T03:20:56;7.28;;;2.15;;
71475;SDS011;59286;59.274;17.974;2023-04-03T03:23:23;8.38;;;2.13;;
71475;SDS011;59286;59.274;17.974;2023-04-03T03:25:54;8.23;;;2.35;;
71475;SDS011;59286;59.274;17.974;2023-04-03T03:28:21;9.98;;;2.30;;
71475;SDS011;59286;59.274;17.974;2023-04-03T03:30:46;9.20;;;2.45;;
71475;SDS011;59286;59.274;17.974;2023-04-03T03:33:12;10.10;;;2.35;;
71475;SDS011;59286;59.274;17.974;2023-04-03T03:35:37;9.02;;;2.28;;
71475;SDS011;59286;59.274;17.974;2023-04-03T03:38:02;12.60;;;2.63;;
71475;SDS011;59286;59.274;17.974;2023-04-03T03:40:27;11.60;;;2.30;;
71475;SDS011;59286;59.274;17.974;2023-04-03T03:42:53;11.52;;;2.10;;
71475;SDS011;59286;59.274;17.974;2023-04-03T03:45:18;8.30;;;2.15;;
71475;SDS011;59286;59.274;17.974;2023-04-03T03:47:43;10.32;;;2.38;;
71475;SDS011;59286;59.274;17.974;2023-04-03T03:50:09;8.65;;;1.98;;
71475;SDS011;59286;59.274;17.974;2023-04-03T03:52:35;11.60;;;2.08;;
71475;SDS011;59286;59.274;17.974;2023-04-03T03:55:00;11.75;;;2.45;;
71475;SDS011;59286;59.274;17.974;2023-04-03T03:57:25;13.82;;;2.85;;
71475;SDS011;59286;59.274;17.974;2023-04-03T03:59:53;10.88;;;2.53;;
71475;SDS011;59286;59.274;17.974;2023-04-03T04:02:19;10.50;;;2.28;;
71475;SDS011;59286;59.274;17.974;2023-04-03T04:04:45;6.63;;;2.10;;
71475;SDS011;59286;59.274;17.974;2023-04-03T04:07:11;13.93;;;2.38;;
71475;SDS011;59286;59.274;17.974;2023-04-03T04:09:36;13.00;;;2.67;;
71475;SDS011;59286;59.274;17.974;2023-04-03T04:12:02;9.35;;;2.28;;
71475;SDS011;59286;59.274;17.974;2023-04-03T04:14:27;12.85;;;2.55;;
71475;SDS011;59286;59.274;17.974;2023-04-03T04:16:52;10.52;;;2.60;;
71475;SDS011;59286;59.274;17.974;2023-04-03T04:19:18;10.13;;;2.80;;
71475;SDS011;59286;59.274;17.974;2023-04-03T04:21:43;12.05;;;2.67;;
71475;SDS011;59286;59.274;17.974;2023-04-03T04:24:08;5.18;;;2.10;;
71475;SDS011;59286;59.274;17.974;2023-04-03T04:26:34;8.07;;;2.30;;
71475;SDS011;59286;59.274;17.974;2023-04-03T04:29:00;8.93;;;2.20;;
71475;SDS011;59286;59.274;17.974;2023-04-03T04:31:25;6.85;;;1.85;;
71475;SDS011;59286;59.274;17.974;2023-04-03T04:33:50;5.97;;;2.00;;
71475;SDS011;59286;59.274;17.974;2023-04-03T04:36:16;12.35;;;2.55;;
71475;SDS011;59286;59.274;17.974;2023-04-03T04:38:42;7.30;;;2.05;;
71475;SDS011;59286;59.274;17.974;2023-04-03T04:41:07;9.45;;;1.90;;
71475;SDS011;59286;59.274;17.974;2023-04-03T04:43:33;8.55;;;2.38;;
71475;SDS011;59286;59.274;17.974;2023-04-03T04:46:02;10.07;;;2.40;;
71475;SDS011;59286;59.274;17.974;2023-04-03T04:48:32;5.47;;;1.88;;
71475;SDS011;59286;59.274;17.974;2023-04-03T04:50:57;12.00;;;1.98;;
71475;SDS011;59286;59.274;17.974;2023-04-03T04:53:23;10.20;;;2.35;;
71475;SDS011;59286;59.274;17.974;2023-04-03T04:55:48;8.93;;;2.13;;
71475;SDS011;59286;59.274;17.974;2023-04-03T04:58:14;9.73;;;2.40;;
71475;SDS011;59286;59.274;17.974;2023-04-03T05:00:39;7.63;;;1.92;;
71475;SDS011;59286;59.274;17.974;2023-04-03T05:03:05;8.52;;;1.88;;
71475;SDS011;59286;59.274;17.974;2023-04-03T05:05:30;11.25;;;2.20;;
71475;SDS011;59286;59.274;17.974;2023-04-03T05:07:55;10.68;;;2.00;;
71475;SDS011;59286;59.274;17.974;2023-04-03T05:10:21;13.02;;;2.58;;
71475;SDS011;59286;59.274;17.974;2023-04-03T05:12:46;8.20;;;2.00;;
71475;SDS011;59286;59.274;17.974;2023-04-03T05:15:12;6.43;;;1.90;;
71475;SDS011;59286;59.274;17.974;2023-04-03T05:17:37;9.07;;;2.10;;
71475;SDS011;59286;59.274;17.974;2023-04-03T05:20:03;10.35;;;2.38;;
71475;SDS011;59286;59.274;17.974;2023-04-03T05:22:29;9.90;;;2.33;;
71475;SDS011;59286;59.274;17.974;2023-04-03T05:24:55;11.00;;;2.03;;
71475;SDS011;59286;59.274;17.974;2023-04-03T05:27:20;7.75;;;1.98;;
71475;SDS011;59286;59.274;17.974;2023-04-03T05:29:46;9.20;;;2.30;;
71475;SDS011;59286;59.274;17.974;2023-04-03T05:32:11;7.47;;;2.00;;
71475;SDS011;59286;59.274;17.974;2023-04-03T05:34:36;10.88;;;1.95;;
71475;SDS011;59286;59.274;17.974;2023-04-03T05:37:03;8.43;;;2.30;;
71475;SDS011;59286;59.274;17.974;2023-04-03T05:39:29;7.40;;;1.90;;
71475;SDS011;59286;59.274;17.974;2023-04-03T05:41:56;11.80;;;2.10;;
71475;SDS011;59286;59.274;17.974;2023-04-03T05:44:22;7.60;;;2.72;;
71475;SDS011;59286;59.274;17.974;2023-04-03T05:46:47;14.25;;;2.60;;
71475;SDS011;59286;59.274;17.974;2023-04-03T05:49:12;9.38;;;1.80;;
71475;SDS011;59286;59.274;17.974;2023-04-03T05:51:38;12.95;;;2.22;;
71475;SDS011;59286;59.274;17.974;2023-04-03T05:54:16;6.82;;;2.00;;
71475;SDS011;59286;59.274;17.974;2023-04-03T05:56:44;9.68;;;2.25;;
71475;SDS011;59286;59.274;17.974;2023-04-03T05:59:10;9.48;;;2.10;;
71475;SDS011;59286;59.274;17.974;2023-04-03T06:01:35;7.03;;;1.85;;
71475;SDS011;59286;59.274;17.974;2023-04-03T06:04:02;9.75;;;2.00;;
71475;SDS011;59286;59.274;17.974;2023-04-03T06:06:42;10.88;;;1.95;;
71475;SDS011;59286;59.274;17.974;2023-04-03T06:09:12;10.57;;;2.03;;
71475;SDS011;59286;59.274;17.974;2023-04-03T06:11:38;10.77;;;2.05;;
71475;SDS011;59286;59.274;17.974;2023-04-03T06:14:04;6.28;;;2.03;;
71475;SDS011;59286;59.274;17.974;2023-04-03T06:16:29;7.68;;;1.98;;
71475;SDS011;59286;59.274;17.974;2023-04-03T06:18:54;8.48;;;2.10;;
71475;SDS011;59286;59.274;17.974;2023-04-03T06:21:21;9.13;;;2.38;;
71475;SDS011;59286;59.274;17.974;2023-04-03T06:23:46;11.52;;;1.85;;
71475;SDS011;59286;59.274;17.974;2023-04-03T06:26:11;14.32;;;1.95;;
71475;SDS011;59286;59.274;17.974;2023-04-03T06:28:37;5.72;;;1.90;;
71475;SDS011;59286;59.274;17.974;2023-04-03T06:31:02;11.93;;;2.55;;
71475;SDS011;59286;59.274;17.974;2023-04-03T06:33:27;6.90;;;1.63;;
71475;SDS011;59286;59.274;17.974;2023-04-03T06:35:59;6.10;;;1.80;;
71475;SDS011;59286;59.274;17.974;2023-04-03T06:38:24;9.15;;;2.20;;
71475;SDS011;59286;59.274;17.974;2023-04-03T06:40:50;9.50;;;2.20;;
71475;SDS011;59286;59.274;17.974;2023-04-03T06:43:16;7.75;;;2.10;;
71475;SDS011;59286;59.274;17.974;2023-04-03T06:45:42;10.32;;;2.10;;
71475;SDS011;59286;59.274;17.974;2023-04-03T06:48:07;9.73;;;1.80;;
71475;SDS011;59286;59.274;17.974;2023-04-03T06:50:32;7.00;;;2.03;;
71475;SDS011;59286;59.274;17.974;2023-04-03T06:52:58;9.27;;;1.98;;
71475;SDS011;59286;59.274;17.974;2023-04-03T06:55:23;8.55;;;1.88;;
71475;SDS011;59286;59.274;17.974;2023-04-03T06:57:48;10.70;;;1.73;;
71475;SDS011;59286;59.274;17.974;2023-04-03T07:00:15;8.73;;;1.95;;
71475;SDS011;59286;59.274;17.974;2023-04-03T07:02:41;7.35;;;1.98;;
71475;SDS011;59286;59.274;17.974;2023-04-03T07:05:07;7.85;;;2.00;;
71475;SDS011;59286;59.274;17.974;2023-04-03T07:07:32;7.35;;;1.95;;
71475;SDS011;59286;59.274;17.974;2023-04-03T07:09:59;9.70;;;2.28;;
71475;SDS011;59286;59.274;17.974;2023-04-03T07:12:24;7.47;;;1.70;;
71475;SDS011;59286;59.274;17.974;2023-04-03T07:14:50;10.55;;;1.98;;
71475;SDS011;59286;59.274;17.974;2023-04-03T07:17:15;5.78;;;2.28;;
71475;SDS011;59286;59.274;17.974;2023-04-03T07:19:41;5.20;;;1.70;;
71475;SDS011;59286;59.274;17.974;2023-04-03T07:22:06;8.10;;;1.98;;
71475;SDS011;59286;59.274;17.974;2023-04-03T07:24:32;9.05;;;1.88;;
71475;SDS011;59286;59.274;17.974;2023-04-03T07:26:58;9.32;;;1.80;;
71475;SDS011;59286;59.274;17.974;2023-04-03T07:29:23;7.43;;;1.90;;
71475;SDS011;59286;59.274;17.974;2023-04-03T07:31:49;10.32;;;2.05;;
71475;SDS011;59286;59.274;17.974;2023-04-03T07:34:14;9.45;;;1.80;;
71475;SDS011;59286;59.274;17.974;2023-04-03T07:36:40;12.05;;;2.42;;
71475;SDS011;59286;59.274;17.974;2023-04-03T07:39:06;9.88;;;1.75;;
71475;SDS011;59286;59.274;17.974;2023-04-03T07:41:33;6.63;;;1.52;;
71475;SDS011;59286;59.274;17.974;2023-04-03T07:43:58;9.75;;;1.98;;
71475;SDS011;59286;59.274;17.974;2023-04-03T07:46:24;12.65;;;2.03;;
71475;SDS011;59286;59.274;17.974;2023-04-03T07:48:49;6.43;;;1.90;;
71475;SDS011;59286;59.274;17.974;2023-04-03T07:51:15;11.15;;;1.90;;
71475;SDS011;59286;59.274;17.974;2023-04-03T07:53:41;10.43;;;1.80;;
71475;SDS011;59286;59.274;17.974;2023-04-03T07:56:06;7.25;;;1.75;;
71475;SDS011;59286;59.274;17.974;2023-04-03T07:58:32;8.90;;;1.83;;
71475;SDS011;59286;59.274;17.974;2023-04-03T08:00:58;8.55;;;1.77;;
71475;SDS011;59286;59.274;17.974;2023-04-03T08:03:23;7.15;;;1.70;;
71475;SDS011;59286;59.274;17.974;2023-04-03T08:05:49;7.40;;;1.80;;
71475;SDS011;59286;59.274;17.974;2023-04-03T08:08:17;7.50;;;1.90;;
71475;SDS011;59286;59.274;17.974;2023-04-03T08:10:47;9.43;;;2.08;;
71475;SDS011;59286;59.274;17.974;2023-04-03T08:13:16;6.78;;;1.33;;
71475;SDS011;59286;59.274;17.974;2023-04-03T08:15:42;8.52;;;1.60;;
71475;SDS011;59286;59.274;17.974;2023-04-03T08:18:08;9.52;;;1.80;;
71475;SDS011;59286;59.274;17.974;2023-04-03T08:20:34;8.40;;;1.73;;
71475;SDS011;59286;59.274;17.974;2023-04-03T08:22:59;10.82;;;1.65;;
71475;SDS011;59286;59.274;17.974;2023-04-03T08:25:25;8.65;;;1.48;;
71475;SDS011;59286;59.274;17.974;2023-04-03T08:27:50;5.97;;;1.23;;
71475;SDS011;59286;59.274;17.974;2023-04-03T08:30:16;7.30;;;1.40;;
71475;SDS011;59286;59.274;17.974;2023-04-03T08:32:42;6.05;;;1.40;;
71475;SDS011;59286;59.274;17.974;2023-04-03T08:35:08;8.63;;;1.40;;
71475;SDS011;59286;59.274;17.974;2023-04-03T08:37:35;6.15;;;1.40;;
71475;SDS011;59286;59.274;17.974;2023-04-03T08:40:01;7.65;;;1.10;;
71475;SDS011;59286;59.274;17.974;2023-04-03T08:45:13;6.30;;;1.30;;
71475;SDS011;59286;59.274;17.974;2023-04-03T08:50:21;4.63;;;1.38;;
71475;SDS011;59286;59.274;17.974;2023-04-03T08:52:55;7.32;;;1.42;;
71475;SDS011;59286;59.274;17.974;2023-04-03T08:55:27;6.10;;;1.48;;
71475;SDS011;59286;59.274;17.974;2023-04-03T09:00:34;9.25;;;1.48;;
71475;SDS011;59286;59.274;17.974;2023-04-03T09:03:11;8.13;;;1.38;;
71475;SDS011;59286;59.274;17.974;2023-04-03T09:11:09;7.30;;;1.40;;
71475;SDS011;59286;59.274;17.974;2023-04-03T09:13:49;7.07;;;1.42;;
71475;SDS011;59286;59.274;17.974;2023-04-03T09:16:25;6.32;;;1.30;;
71475;SDS011;59286;59.274;17.974;2023-04-03T09:19:16;11.75;;;1.50;;
71475;SDS011;59286;59.274;17.974;2023-04-03T09:22:02;6.63;;;1.55;;
71475;SDS011;59286;59.274;17.974;2023-04-03T09:28:04;8.57;;;1.45;;
71475;SDS011;59286;59.274;17.974;2023-04-03T09:30:34;9.35;;;1.58;;
71475;SDS011;59286;59.274;17.974;2023-04-03T09:33:00;8.48;;;1.52;;
71475;SDS011;59286;59.274;17.974;2023-04-03T09:35:36;3.50;;;1.08;;
71475;SDS011;59286;59.274;17.974;2023-04-03T09:40:41;10.65;;;1.73;;
71475;SDS011;59286;59.274;17.974;2023-04-03T09:43:31;5.05;;;1.30;;
71475;SDS011;59286;59.274;17.974;2023-04-03T09:46:15;5.47;;;1.55;;
71475;SDS011;59286;59.274;17.974;2023-04-03T09:51:35;5.88;;;1.05;;
71475;SDS011;59286;59.274;17.974;2023-04-03T09:54:01;2.55;;;0.80;;
71475;SDS011;59286;59.274;17.974;2023-04-03T09:57:09;7.95;;;1.58;;
71475;SDS011;59286;59.274;17.974;2023-04-03T09:59:40;4.88;;;0.73;;
71475;SDS011;59286;59.274;17.974;2023-04-03T10:04:48;5.88;;;0.95;;
71475;SDS011;59286;59.274;17.974;2023-04-03T10:07:28;4.95;;;1.00;;
71475;SDS011;59286;59.274;17.974;2023-04-03T10:10:00;5.15;;;1.10;;
71475;SDS011;59286;59.274;17.974;2023-04-03T10:12:29;4.18;;;0.93;;
71475;SDS011;59286;59.274;17.974;2023-04-03T10:15:01;3.88;;;1.08;;
71475;SDS011;59286;59.274;17.974;2023-04-03T10:20:27;3.63;;;0.90;;
71475;SDS011;59286;59.274;17.974;2023-04-03T10:23:14;11.68;;;1.30;;
71475;SDS011;59286;59.274;17.974;2023-04-03T10:31:41;11.55;;;1.48;;
71475;SDS011;59286;59.274;17.974;2023-04-03T10:34:19;6.40;;;1.10;;
71475;SDS011;59286;59.274;17.974;2023-04-03T10:36:55;11.65;;;1.40;;
71475;SDS011;59286;59.274;17.974;2023-04-03T10:40:00;5.38;;;1.42;;
71475;SDS011;59286;59.274;17.974;2023-04-03T10:51:01;6.07;;;1.10;;
71475;SDS011;59286;59.274;17.974;2023-04-03T10:53:35;9.45;;;1.13;;
71475;SDS011;59286;59.274;17.974;2023-04-03T10:58:55;8.60;;;1.00;;
71475;SDS011;59286;59.274;17.974;2023-04-03T11:01:27;6.80;;;1.38;;
71475;SDS011;59286;59.274;17.974;2023-04-03T11:03:58;3.47;;;1.10;;
71475;SDS011;59286;59.274;17.974;2023-04-03T11:06:30;15.70;;;4.95;;
71475;SDS011;59286;59.274;17.974;2023-04-03T11:09:09;7.95;;;1.67;;
71475;SDS011;59286;59.274;17.974;2023-04-03T11:11:51;8.40;;;0.80;;
71475;SDS011;59286;59.274;17.974;2023-04-03T11:14:26;4.53;;;0.90;;
71475;SDS011;59286;59.274;17.974;2023-04-03T11:17:09;6.18;;;1.25;;
71475;SDS011;59286;59.274;17.974;2023-04-03T11:22:34;5.38;;;0.80;;
71475;SDS011;59286;59.274;17.974;2023-04-03T11:25:05;11.38;;;1.00;;
71475;SDS011;59286;59.274;17.974;2023-04-03T11:27:46;7.45;;;0.98;;
71475;SDS011;59286;59.274;17.974;2023-04-03T11:30:20;7.25;;;0.90;;
71475;SDS011;59286;59.274;17.974;2023-04-03T11:32:59;2.78;;;0.90;;
71475;SDS011;59286;59.274;17.974;2023-04-03T11:35:36;4.78;;;1.10;;
71475;SDS011;59286;59.274;17.974;2023-04-03T11:38:07;5.07;;;1.10;;
71475;SDS011;59286;59.274;17.974;2023-04-03T11:41:04;5.22;;;1.10;;
71475;SDS011;59286;59.274;17.974;2023-04-03T11:43:31;8.82;;;1.00;;
71475;SDS011;59286;59.274;17.974;2023-04-03T11:50:58;5.65;;;1.15;;
71475;SDS011;59286;59.274;17.974;2023-04-03T11:55:58;5.65;;;0.90;;
71475;SDS011;59286;59.274;17.974;2023-04-03T12:01:01;7.13;;;1.20;;
71475;SDS011;59286;59.274;17.974;2023-04-03T12:03:31;6.57;;;0.80;;
71475;SDS011;59286;59.274;17.974;2023-04-03T12:16:23;7.28;;;0.98;;
71475;SDS011;59286;59.274;17.974;2023-04-03T12:29:17;2.45;;;0.70;;
71475;SDS011;59286;59.274;17.974;2023-04-03T12:48:29;3.83;;;0.90;;
71475;SDS011;59286;59.274;17.974;2023-04-03T12:50:57;6.40;;;0.80;;
71475;SDS011;59286;59.274;17.974;2023-04-03T12:53:27;8.80;;;0.90;;
71475;SDS011;59286;59.274;17.974;2023-04-03T12:58:46;4.57;;;1.00;;
71475;SDS011;59286;59.274;17.974;2023-04-03T13:01:13;4.25;;;0.70;;
71475;SDS011;59286;59.274;17.974;2023-04-03T13:03:45;4.95;;;0.75;;
71475;SDS011;59286;59.274;17.974;2023-04-03T13:06:15;9.10;;;1.30;;
71475;SDS011;59286;59.274;17.974;2023-04-03T13:08:51;5.22;;;0.70;;
71475;SDS011;59286;59.274;17.974;2023-04-03T13:11:18;6.30;;;0.70;;
71475;SDS011;59286;59.274;17.974;2023-04-03T13:13:56;4.22;;;0.93;;
71475;SDS011;59286;59.274;17.974;2023-04-03T13:16:23;2.90;;;0.57;;
71475;SDS011;59286;59.274;17.974;2023-04-03T13:18:52;4.45;;;0.65;;
71475;SDS011;59286;59.274;17.974;2023-04-03T13:21:23;1.73;;;0.50;;
71475;SDS011;59286;59.274;17.974;2023-04-03T13:23:52;2.97;;;0.80;;
71475;SDS011;59286;59.274;17.974;2023-04-03T13:26:22;4.40;;;0.90;;
71475;SDS011;59286;59.274;17.974;2023-04-03T13:28:51;4.57;;;0.80;;
71475;SDS011;59286;59.274;17.974;2023-04-03T13:31:22;3.05;;;0.90;;
71475;SDS011;59286;59.274;17.974;2023-04-03T13:34:10;2.85;;;0.63;;
71475;SDS011;59286;59.274;17.974;2023-04-03T13:36:39;5.20;;;0.80;;
71475;SDS011;59286;59.274;17.974;2023-04-03T13:41:38;6.57;;;1.55;;
71475;SDS011;59286;59.274;17.974;2023-04-03T13:46:48;5.75;;;1.08;;
71475;SDS011;59286;59.274;17.974;2023-04-03T13:49:58;4.78;;;0.70;;
71475;SDS011;59286;59.274;17.974;2023-04-03T13:52:20;4.57;;;0.68;;
71475;SDS011;59286;59.274;17.974;2023-04-03T13:54:52;5.20;;;0.80;;
71475;SDS011;59286;59.274;17.974;2023-04-03T13:57:21;6.28;;;0.60;;
71475;SDS011;59286;59.274;17.974;2023-04-03T13:59:46;5.93;;;0.73;;
71475;SDS011;59286;59.274;17.974;2023-04-03T14:07:05;10.90;;;0.80;;
71475;SDS011;59286;59.274;17.974;2023-04-03T14:09:31;6.22;;;0.60;;
71475;SDS011;59286;59.274;17.974;2023-04-03T14:12:00;11.25;;;0.70;;
71475;SDS011;59286;59.274;17.974;2023-04-03T14:14:30;5.47;;;0.90;;
71475;SDS011;59286;59.274;17.974;2023-04-03T14:16:58;5.43;;;1.00;;
71475;SDS011;59286;59.274;17.974;2023-04-03T14:19:28;7.38;;;0.60;;
71475;SDS011;59286;59.274;17.974;2023-04-03T14:21:55;0.60;;;0.40;;
71475;SDS011;59286;59.274;17.974;2023-04-03T14:24:21;5.60;;;0.65;;
71475;SDS011;59286;59.274;17.974;2023-04-03T14:26:48;4.82;;;0.90;;
71475;SDS011;59286;59.274;17.974;2023-04-03T14:29:18;7.13;;;0.93;;
71475;SDS011;59286;59.274;17.974;2023-04-03T14:31:44;5.90;;;0.90;;
71475;SDS011;59286;59.274;17.974;2023-04-03T14:34:11;3.53;;;0.90;;
71475;SDS011;59286;59.274;17.974;2023-04-03T14:36:38;2.78;;;0.60;;
71475;SDS011;59286;59.274;17.974;2023-04-03T14:39:06;2.83;;;0.70;;
71475;SDS011;59286;59.274;17.974;2023-04-03T14:41:33;4.47;;;0.73;;
71475;SDS011;59286;59.274;17.974;2023-04-03T14:43:59;7.25;;;1.05;;
71475;SDS011;59286;59.274;17.974;2023-04-03T14:46:29;2.65;;;1.02;;
71475;SDS011;59286;59.274;17.974;2023-04-03T14:48:57;6.40;;;1.00;;
71475;SDS011;59286;59.274;17.974;2023-04-03T14:51:23;6.43;;;0.93;;
71475;SDS011;59286;59.274;17.974;2023-04-03T14:53:49;5.50;;;0.90;;
71475;SDS011;59286;59.274;17.974;2023-04-03T14:56:19;5.55;;;1.00;;
71475;SDS011;59286;59.274;17.974;2023-04-03T14:58:48;6.20;;;0.80;;
71475;SDS011;59286;59.274;17.974;2023-04-03T15:01:17;5.60;;;0.90;;
71475;SDS011;59286;59.274;17.974;2023-04-03T15:03:43;4.25;;;0.80;;
71475;SDS011;59286;59.274;17.974;2023-04-03T15:06:10;3.17;;;0.95;;
71475;SDS011;59286;59.274;17.974;2023-04-03T15:08:37;3.95;;;0.93;;
71475;SDS011;59286;59.274;17.974;2023-04-03T15:11:03;3.60;;;0.77;;
71475;SDS011;59286;59.274;17.974;2023-04-03T15:13:28;4.65;;;0.63;;
71475;SDS011;59286;59.274;17.974;2023-04-03T15:15:54;4.15;;;1.00;;
71475;SDS011;59286;59.274;17.974;2023-04-03T15:18:21;4.25;;;1.00;;
71475;SDS011;59286;59.274;17.974;2023-04-03T15:20:48;4.25;;;0.82;;
71475;SDS011;59286;59.274;17.974;2023-04-03T15:23:14;5.38;;;0.82;;
71475;SDS011;59286;59.274;17.974;2023-04-03T15:25:50;5.82;;;0.80;;
71475;SDS011;59286;59.274;17.974;2023-04-03T15:28:19;6.15;;;0.80;;
71475;SDS011;59286;59.274;17.974;2023-04-03T15:30:49;2.88;;;0.70;;
71475;SDS011;59286;59.274;17.974;2023-04-03T15:33:15;3.90;;;0.90;;
71475;SDS011;59286;59.274;17.974;2023-04-03T15:35:41;8.88;;;1.10;;
71475;SDS011;59286;59.274;17.974;2023-04-03T15:38:06;2.35;;;0.60;;
71475;SDS011;59286;59.274;17.974;2023-04-03T15:40:32;7.50;;;0.82;;
71475;SDS011;59286;59.274;17.974;2023-04-03T15:42:57;4.78;;;1.00;;
71475;SDS011;59286;59.274;17.974;2023-04-03T15:45:22;4.00;;;0.82;;
71475;SDS011;59286;59.274;17.974;2023-04-03T15:47:48;5.45;;;0.80;;
71475;SDS011;59286;59.274;17.974;2023-04-03T15:50:13;1.77;;;0.75;;
71475;SDS011;59286;59.274;17.974;2023-04-03T15:52:39;7.53;;;0.90;;
71475;SDS011;59286;59.274;17.974;2023-04-03T15:55:04;10.23;;;1.17;;
71475;SDS011;59286;59.274;17.974;2023-04-03T15:57:31;5.78;;;0.80;;
71475;SDS011;59286;59.274;17.974;2023-04-03T15:59:56;6.35;;;0.80;;
71475;SDS011;59286;59.274;17.974;2023-04-03T16:02:21;2.88;;;0.63;;
71475;SDS011;59286;59.274;17.974;2023-04-03T16:04:47;6.38;;;0.80;;
71475;SDS011;59286;59.274;17.974;2023-04-03T16:07:13;4.75;;;0.70;;
71475;SDS011;59286;59.274;17.974;2023-04-03T16:09:38;3.28;;;0.50;;
71475;SDS011;59286;59.274;17.974;2023-04-03T16:12:04;1.02;;;0.57;;
71475;SDS011;59286;59.274;17.974;2023-04-03T16:14:29;3.78;;;0.82;;
71475;SDS011;59286;59.274;17.974;2023-04-03T16:16:55;3.05;;;0.60;;
71475;SDS011;59286;59.274;17.974;2023-04-03T16:19:22;5.60;;;0.73;;
71475;SDS011;59286;59.274;17.974;2023-04-03T16:21:48;3.22;;;0.70;;
71475;SDS011;59286;59.274;17.974;2023-04-03T16:24:13;4.35;;;0.50;;
71475;SDS011;59286;59.274;17.974;2023-04-03T16:26:39;5.30;;;0.60;;
71475;SDS011;59286;59.274;17.974;2023-04-03T16:29:04;4.82;;;0.65;;